CST,Max TemperatureF,Mean TemperatureF,Min TemperatureF,Max Dew PointF,MeanDew PointF,Min DewpointF,Max Humidity, Mean Humidity, Min Humidity, Max Sea Level PressureIn, Mean Sea Level PressureIn, Min Sea Level PressureIn, Max VisibilityMiles, Mean VisibilityMiles, Min VisibilityMiles, Max Wind SpeedMPH, Mean Wind SpeedMPH, Max Gust SpeedMPH,PrecipitationIn, CloudCover, Events, WindDirDegrees
2013-2-1,51,32,14,27,18,7,80,62,35,30.32,30.17,30.03,10,10,10,24,8,28,0.00,0,,184
2013-2-2,55,40,26,30,22,16,80,54,26,30.35,30.28,30.16,10,10,10,22,10,25,0.00,0,,302
2013-2-3,62,42,21,30,20,12,74,46,20,30.29,30.06,29.83,10,10,10,28,10,34,0.00,0,,197
2013-2-4,55,42,30,25,21,16,64,46,26,30.02,29.93,29.82,10,10,9,17,9,21,0.00,0,,12
2013-2-5,62,42,21,28,20,9,74,45,20,30.06,29.98,29.90,10,10,8,18,7,25,0.00,0,,82
2013-2-6,69,48,26,43,28,16,81,51,18,30.00,29.84,29.69,10,9,0,24,10,30,0.00,1,,199
2013-2-7,55,42,28,39,25,12,81,50,28,30.20,30.06,29.79,10,9,0,26,17,38,0.00,2,,358
2013-2-8,55,37,19,27,18,12,74,46,26,30.23,30.13,30.01,10,10,10,26,12,33,0.00,0,,191
2013-2-9,60,44,28,39,25,12,71,47,31,30.00,29.72,29.47,10,10,10,32,17,38,0.00,1,,171
2013-2-10,48,34,21,25,16,9,65,44,27,30.08,29.78,29.52,10,10,10,29,17,36,0.00,0,,313
2013-2-11,42,28,15,19,13,9,74,51,31,30.20,30.12,30.06,10,10,10,13,7,17,0.00,2,,46
2013-2-12,37,32,28,32,27,18,87,80,45,30.10,30.04,30.01,10,7,1,20,6,23,0.10,5,,208
2013-2-13,50,34,19,27,19,10,80,60,32,30.04,29.99,29.93,10,10,10,14,10,16,0.00,0,,263
2013-2-14,46,36,26,28,23,16,74,61,46,30.32,30.13,29.99,10,10,10,28,11,36,0.00,4,,359
2013-2-15,46,34,23,21,18,14,74,58,29,30.39,30.34,30.25,10,10,10,22,7,30,0.00,4,,330
2013-2-16,62,38,15,27,17,9,80,50,18,30.38,30.17,30.01,10,10,10,18,8,28,0.00,0,,276
2013-2-17,69,45,21,25,19,10,69,40,15,30.01,29.78,29.50,10,10,10,18,8,24,0.00,0,,234
2013-2-18,50,36,19,23,16,5,60,41,24,30.14,29.89,29.51,10,10,10,34,20,43,0.00,1,,333
2013-2-19,53,34,15,21,15,5,68,46,26,30.23,30.13,30.02,10,10,10,25,8,30,0.00,0,,139
2013-2-20,39,36,32,30,27,19,87,78,45,30.01,29.88,29.77,10,7,0,26,20,34,0.32,8,,132
2013-2-21,32,20,8,27,16,1,86,80,67,29.94,29.77,29.63,10,6,0,24,17,30,0.02,5,,14
2013-2-22,30,18,6,21,12,0,86,74,64,30.06,30.01,29.94,10,10,8,15,8,,0.00,0,,269
2013-2-23,37,29,21,30,25,14,86,77,70,30.01,29.86,29.71,10,10,5,17,10,,0.00,3,,196
2013-2-24,30,27,24,27,24,19,86,82,74,29.91,29.75,29.66,10,6,1,30,13,37,0.00,5,,35
2013-2-25,33,28,24,28,24,19,87,81,74,29.90,29.87,29.83,10,4,0,39,28,47,0.00,6,,2
2013-2-26,39,27,15,27,21,10,86,75,60,29.95,29.85,29.79,10,10,10,14,9,,0.00,1,,326
2013-2-27,42,34,26,30,23,18,80,69,52,30.25,30.14,29.96,10,10,10,33,14,40,0.00,2,,336
2013-2-28,42,34,26,25,19,16,74,65,39,30.28,30.24,30.19,10,10,10,15,10,,0.00,2,,303